sensor_id;sensor_type;location;lat;lon;timestamp;pressure;altitude;pressure_sealevel;temperature;humidity
33454;BME280;39400;49.744;7.012;2023-09-18T00:02:03;95197.47;;;27.25;59.22
33454;BME280;39400;49.744;7.012;2023-09-18T00:04:28;95197.06;;;27.51;58.11
33454;BME280;39400;49.744;7.012;2023-09-18T00:06:53;95195.13;;;27.29;58.67
33454;BME280;39400;49.744;7.012;2023-09-18T00:09:18;95188.81;;;27.53;58.13
33454;BME280;39400;49.744;7.012;2023-09-18T00:11:43;95179.81;;;27.55;57.74
33454;BME280;39400;49.744;7.012;2023-09-18T00:14:09;95170.63;;;27.48;57.72
33454;BME280;39400;49.744;7.012;2023-09-18T00:16:34;95172.31;;;27.27;58.06
33454;BME280;39400;49.744;7.012;2023-09-18T00:18:59;95170.88;;;27.50;57.67
33454;BME280;39400;49.744;7.012;2023-09-18T00:21:24;95170.09;;;27.09;58.36
33454;BME280;39400;49.744;7.012;2023-09-18T00:23:50;95160.69;;;27.36;57.66
33454;BME280;39400;49.744;7.012;2023-09-18T00:26:15;95158.84;;;27.44;57.75
33454;BME280;39400;49.744;7.012;2023-09-18T00:28:43;95148.13;;;27.37;57.55
33454;BME280;39400;49.744;7.012;2023-09-18T00:31:08;95132.81;;;27.27;57.75
33454;BME280;39400;49.744;7.012;2023-09-18T00:33:33;95159.31;;;27.48;57.65
33454;BME280;39400;49.744;7.012;2023-09-18T00:35:59;95169.88;;;27.42;57.05
33454;BME280;39400;49.744;7.012;2023-09-18T00:38:24;95195.94;;;27.30;58.08
33454;BME280;39400;49.744;7.012;2023-09-18T00:40:49;95256.81;;;27.14;58.94
33454;BME280;39400;49.744;7.012;2023-09-18T00:43:14;95315.28;;;27.19;60.14
33454;BME280;39400;49.744;7.012;2023-09-18T00:45:41;95392.06;;;38.00;100.00
33454;BME280;39400;49.744;7.012;2023-09-18T00:48:07;95394.38;;;41.16;100.00
33454;BME280;39400;49.744;7.012;2023-09-18T00:50:32;95362.13;;;30.50;100.00
33454;BME280;39400;49.744;7.012;2023-09-18T00:52:58;95365.97;;;29.82;100.00
33454;BME280;39400;49.744;7.012;2023-09-18T00:55:24;95319.69;;;28.38;100.00
33454;BME280;39400;49.744;7.012;2023-09-18T00:57:49;95252.81;;;28.11;100.00
33454;BME280;39400;49.744;7.012;2023-09-18T01:00:14;95271.63;;;28.38;100.00
33454;BME280;39400;49.744;7.012;2023-09-18T01:02:40;95310.06;;;27.87;100.00
33454;BME280;39400;49.744;7.012;2023-09-18T01:05:06;95310.00;;;27.51;100.00
33454;BME280;39400;49.744;7.012;2023-09-18T01:07:31;95318.31;;;26.51;100.00
33454;BME280;39400;49.744;7.012;2023-09-18T01:09:56;95291.66;;;26.30;100.00
33454;BME280;39400;49.744;7.012;2023-09-18T01:12:30;95282.06;;;26.84;100.00
33454;BME280;39400;49.744;7.012;2023-09-18T01:15:11;95254.91;;;26.75;100.00
33454;BME280;39400;49.744;7.012;2023-09-18T01:17:37;95241.25;;;26.90;100.00
33454;BME280;39400;49.744;7.012;2023-09-18T01:20:02;95227.31;;;27.15;100.00
33454;BME280;39400;49.744;7.012;2023-09-18T01:22:29;95230.56;;;27.30;100.00
33454;BME280;39400;49.744;7.012;2023-09-18T01:24:54;95222.56;;;27.70;95.46
33454;BME280;39400;49.744;7.012;2023-09-18T01:27:20;95214.28;;;27.47;95.28
33454;BME280;39400;49.744;7.012;2023-09-18T01:29:45;95198.59;;;27.46;94.31
33454;BME280;39400;49.744;7.012;2023-09-18T01:32:11;95187.19;;;27.63;91.03
33454;BME280;39400;49.744;7.012;2023-09-18T01:34:37;95186.47;;;27.57;89.71
33454;BME280;39400;49.744;7.012;2023-09-18T01:37:04;95180.59;;;27.55;90.85
33454;BME280;39400;49.744;7.012;2023-09-18T01:39:30;95162.38;;;27.86;89.16
33454;BME280;39400;49.744;7.012;2023-09-18T01:42:00;95151.88;;;27.81;87.40
33454;BME280;39400;49.744;7.012;2023-09-18T01:44:25;95143.16;;;27.79;87.35
33454;BME280;39400;49.744;7.012;2023-09-18T01:46:50;95136.63;;;27.60;87.11
33454;BME280;39400;49.744;7.012;2023-09-18T01:49:25;95142.53;;;27.26;86.88
33454;BME280;39400;49.744;7.012;2023-09-18T01:51:51;95132.91;;;27.76;86.99
33454;BME280;39400;49.744;7.012;2023-09-18T01:54:16;95136.69;;;28.58;80.59
33454;BME280;39400;49.744;7.012;2023-09-18T01:56:41;95133.91;;;28.71;78.78
33454;BME280;39400;49.744;7.012;2023-09-18T01:59:07;95126.44;;;28.55;78.81
33454;BME280;39400;49.744;7.012;2023-09-18T02:01:32;95118.16;;;27.59;84.58
33454;BME280;39400;49.744;7.012;2023-09-18T02:03:57;95123.41;;;27.08;89.55
33454;BME280;39400;49.744;7.012;2023-09-18T02:06:23;95132.31;;;27.53;88.13
33454;BME280;39400;49.744;7.012;2023-09-18T02:08:48;95157.09;;;26.94;89.51
33454;BME280;39400;49.744;7.012;2023-09-18T02:11:13;95162.31;;;26.79;93.00
33454;BME280;39400;49.744;7.012;2023-09-18T02:13:38;95164.41;;;26.73;94.67
33454;BME280;39400;49.744;7.012;2023-09-18T02:16:03;95166.31;;;27.00;92.52
33454;BME280;39400;49.744;7.012;2023-09-18T02:18:29;95186.47;;;26.69;94.08
33454;BME280;39400;49.744;7.012;2023-09-18T02:20:54;95185.63;;;26.85;94.76
33454;BME280;39400;49.744;7.012;2023-09-18T02:23:19;95177.19;;;26.85;93.00
33454;BME280;39400;49.744;7.012;2023-09-18T02:25:44;95177.94;;;26.11;94.56
33454;BME280;39400;49.744;7.012;2023-09-18T02:28:09;95183.94;;;26.65;93.47
33454;BME280;39400;49.744;7.012;2023-09-18T02:30:35;95175.66;;;26.78;91.11
33454;BME280;39400;49.744;7.012;2023-09-18T02:33:00;95186.34;;;26.22;95.62
33454;BME280;39400;49.744;7.012;2023-09-18T02:35:25;95189.50;;;25.90;99.10
33454;BME280;39400;49.744;7.012;2023-09-18T02:37:50;95169.19;;;26.20;98.23
33454;BME280;39400;49.744;7.012;2023-09-18T02:40:16;95188.75;;;25.84;100.00
33454;BME280;39400;49.744;7.012;2023-09-18T02:42:41;95193.84;;;26.02;100.00
33454;BME280;39400;49.744;7.012;2023-09-18T02:45:06;95190.19;;;26.30;96.25
33454;BME280;39400;49.744;7.012;2023-09-18T02:47:32;95186.16;;;26.08;96.70
33454;BME280;39400;49.744;7.012;2023-09-18T02:49:57;95194.84;;;25.66;100.00
33454;BME280;39400;49.744;7.012;2023-09-18T02:52:22;95192.81;;;25.72;100.00
33454;BME280;39400;49.744;7.012;2023-09-18T02:54:48;95174.88;;;25.97;99.76
33454;BME280;39400;49.744;7.012;2023-09-18T02:57:13;95166.31;;;26.48;95.95
33454;BME280;39400;49.744;7.012;2023-09-18T02:59:39;95180.78;;;25.66;100.00
33454;BME280;39400;49.744;7.012;2023-09-18T03:02:05;95174.88;;;25.75;100.00
33454;BME280;39400;49.744;7.012;2023-09-18T03:04:31;95171.84;;;25.39;100.00
33454;BME280;39400;49.744;7.012;2023-09-18T03:06:57;95171.06;;;25.55;100.00
33454;BME280;39400;49.744;7.012;2023-09-18T03:09:22;95164.38;;;25.70;100.00
33454;BME280;39400;49.744;7.012;2023-09-18T03:11:47;95156.72;;;25.48;100.00
33454;BME280;39400;49.744;7.012;2023-09-18T03:14:13;95155.44;;;25.21;100.00
33454;BME280;39400;49.744;7.012;2023-09-18T03:16:38;95158.69;;;24.97;100.00
33454;BME280;39400;49.744;7.012;2023-09-18T03:19:03;95144.97;;;25.27;100.00
33454;BME280;39400;49.744;7.012;2023-09-18T03:21:30;95145.16;;;25.06;100.00
33454;BME280;39400;49.744;7.012;2023-09-18T03:23:55;95147.50;;;25.13;100.00
33454;BME280;39400;49.744;7.012;2023-09-18T03:26:21;95157.72;;;24.29;100.00
33454;BME280;39400;49.744;7.012;2023-09-18T03:28:46;95149.47;;;24.85;100.00
33454;BME280;39400;49.744;7.012;2023-09-18T03:31:12;95151.47;;;24.56;100.00
33454;BME280;39400;49.744;7.012;2023-09-18T03:33:37;95155.66;;;25.06;100.00
33454;BME280;39400;49.744;7.012;2023-09-18T03:36:02;95154.38;;;25.01;100.00
33454;BME280;39400;49.744;7.012;2023-09-18T03:38:32;95150.69;;;24.61;100.00
33454;BME280;39400;49.744;7.012;2023-09-18T03:40:59;95159.41;;;24.63;100.00
33454;BME280;39400;49.744;7.012;2023-09-18T03:43:24;95151.22;;;24.60;100.00
33454;BME280;39400;49.744;7.012;2023-09-18T03:45:49;95152.72;;;24.55;100.00
33454;BME280;39400;49.744;7.012;2023-09-18T03:48:15;95148.09;;;24.52;100.00
33454;BME280;39400;49.744;7.012;2023-09-18T03:50:41;95135.91;;;24.78;100.00
33454;BME280;39400;49.744;7.012;2023-09-18T03:56:16;95128.78;;;24.99;100.00
33454;BME280;39400;49.744;7.012;2023-09-18T03:58:42;95114.50;;;25.53;100.00
33454;BME280;39400;49.744;7.012;2023-09-18T04:01:07;95105.03;;;24.95;100.00
33454;BME280;39400;49.744;7.012;2023-09-18T04:03:33;95083.56;;;25.25;100.00
33454;BME280;39400;49.744;7.012;2023-09-18T04:05:58;95066.44;;;25.29;100.00
33454;BME280;39400;49.744;7.012;2023-09-18T04:08:23;95057.19;;;25.00;100.00
33454;BME280;39400;49.744;7.012;2023-09-18T04:10:49;95068.72;;;25.08;100.00
33454;BME280;39400;49.744;7.012;2023-09-18T04:13:14;95070.75;;;24.96;100.00
33454;BME280;39400;49.744;7.012;2023-09-18T04:15:39;95077.09;;;24.68;100.00
33454;BME280;39400;49.744;7.012;2023-09-18T04:18:04;95074.31;;;24.74;100.00
33454;BME280;39400;49.744;7.012;2023-09-18T04:20:30;95060.78;;;25.06;100.00
33454;BME280;39400;49.744;7.012;2023-09-18T04:25:39;95079.19;;;25.07;100.00
33454;BME280;39400;49.744;7.012;2023-09-18T04:28:05;95102.72;;;24.99;100.00
33454;BME280;39400;49.744;7.012;2023-09-18T04:30:30;95101.91;;;24.64;100.00
33454;BME280;39400;49.744;7.012;2023-09-18T04:32:55;95130.28;;;24.12;100.00
33454;BME280;39400;49.744;7.012;2023-09-18T04:35:21;95123.41;;;24.73;100.00
33454;BME280;39400;49.744;7.012;2023-09-18T04:37:46;95126.06;;;23.85;100.00
33454;BME280;39400;49.744;7.012;2023-09-18T04:40:12;95122.16;;;24.14;100.00
33454;BME280;39400;49.744;7.012;2023-09-18T04:42:38;95117.22;;;24.04;100.00
33454;BME280;39400;49.744;7.012;2023-09-18T04:45:04;95126.47;;;24.15;100.00
33454;BME280;39400;49.744;7.012;2023-09-18T04:47:29;95145.34;;;24.09;100.00
33454;BME280;39400;49.744;7.012;2023-09-18T04:49:55;95162.66;;;24.02;100.00
33454;BME280;39400;49.744;7.012;2023-09-18T04:52:20;95154.56;;;23.72;100.00
33454;BME280;39400;49.744;7.012;2023-09-18T04:54:46;95128.44;;;23.98;100.00
33454;BME280;39400;49.744;7.012;2023-09-18T04:57:11;95124.78;;;23.81;100.00
33454;BME280;39400;49.744;7.012;2023-09-18T04:59:38;95140.19;;;24.02;100.00
33454;BME280;39400;49.744;7.012;2023-09-18T05:02:03;95136.81;;;23.92;100.00
33454;BME280;39400;49.744;7.012;2023-09-18T05:04:28;95151.09;;;23.83;100.00
33454;BME280;39400;49.744;7.012;2023-09-18T05:06:53;95160.38;;;24.01;100.00
33454;BME280;39400;49.744;7.012;2023-09-18T05:09:19;95167.06;;;24.09;100.00
33454;BME280;39400;49.744;7.012;2023-09-18T05:11:44;95160.72;;;24.19;100.00
33454;BME280;39400;49.744;7.012;2023-09-18T05:14:09;95145.06;;;24.02;100.00
33454;BME280;39400;49.744;7.012;2023-09-18T05:16:34;95146.28;;;23.95;100.00
33454;BME280;39400;49.744;7.012;2023-09-18T05:18:59;95143.22;;;23.93;100.00
33454;BME280;39400;49.744;7.012;2023-09-18T05:21:25;95146.28;;;24.43;100.00
33454;BME280;39400;49.744;7.012;2023-09-18T05:23:50;95138.72;;;24.12;100.00
33454;BME280;39400;49.744;7.012;2023-09-18T05:26:15;95147.19;;;24.18;100.00
33454;BME280;39400;49.744;7.012;2023-09-18T05:28:41;95148.75;;;23.82;100.00
33454;BME280;39400;49.744;7.012;2023-09-18T05:31:06;95145.28;;;23.98;100.00
33454;BME280;39400;49.744;7.012;2023-09-18T05:33:31;95136.91;;;23.66;100.00
33454;BME280;39400;49.744;7.012;2023-09-18T05:35:56;95132.84;;;23.67;100.00
33454;BME280;39400;49.744;7.012;2023-09-18T05:38:21;95130.03;;;23.67;100.00
33454;BME280;39400;49.744;7.012;2023-09-18T05:40:47;95143.44;;;23.52;100.00
33454;BME280;39400;49.744;7.012;2023-09-18T05:43:12;95145.22;;;23.87;100.00
33454;BME280;39400;49.744;7.012;2023-09-18T05:45:37;95141.97;;;23.25;100.00
33454;BME280;39400;49.744;7.012;2023-09-18T05:48:03;95157.66;;;23.43;100.00
33454;BME280;39400;49.744;7.012;2023-09-18T05:50:28;95152.53;;;23.10;100.00
33454;BME280;39400;49.744;7.012;2023-09-18T05:52:53;95157.56;;;23.00;100.00
33454;BME280;39400;49.744;7.012;2023-09-18T05:55:18;95143.53;;;23.32;100.00
33454;BME280;39400;49.744;7.012;2023-09-18T05:57:44;95153.03;;;23.40;100.00
33454;BME280;39400;49.744;7.012;2023-09-18T06:00:09;95150.66;;;23.64;100.00
33454;BME280;39400;49.744;7.012;2023-09-18T06:02:37;95150.75;;;23.44;100.00
33454;BME280;39400;49.744;7.012;2023-09-18T06:05:03;95168.03;;;23.31;100.00
33454;BME280;39400;49.744;7.012;2023-09-18T06:07:28;95181.78;;;23.03;100.00
33454;BME280;39400;49.744;7.012;2023-09-18T06:09:54;95170.59;;;23.35;100.00
33454;BME280;39400;49.744;7.012;2023-09-18T06:12:19;95176.63;;;23.27;100.00
33454;BME280;39400;49.744;7.012;2023-09-18T06:14:44;95156.84;;;23.37;100.00
33454;BME280;39400;49.744;7.012;2023-09-18T06:17:10;95174.22;;;23.72;100.00
33454;BME280;39400;49.744;7.012;2023-09-18T06:19:35;95186.72;;;23.40;100.00
33454;BME280;39400;49.744;7.012;2023-09-18T06:22:00;95177.59;;;22.93;100.00
33454;BME280;39400;49.744;7.012;2023-09-18T06:24:25;95178.56;;;23.42;100.00
33454;BME280;39400;49.744;7.012;2023-09-18T06:26:51;95166.03;;;22.85;100.00
33454;BME280;39400;49.744;7.012;2023-09-18T06:29:16;95171.19;;;23.44;100.00
33454;BME280;39400;49.744;7.012;2023-09-18T06:31:41;95181.47;;;23.53;100.00
33454;BME280;39400;49.744;7.012;2023-09-18T06:34:06;95181.91;;;23.14;100.00
33454;BME280;39400;49.744;7.012;2023-09-18T06:36:32;95190.13;;;23.23;100.00
33454;BME280;39400;49.744;7.012;2023-09-18T06:38:57;95180.50;;;23.30;100.00
33454;BME280;39400;49.744;7.012;2023-09-18T06:41:22;95182.41;;;23.44;100.00
33454;BME280;39400;49.744;7.012;2023-09-18T06:43:47;95196.94;;;23.43;100.00
33454;BME280;39400;49.744;7.012;2023-09-18T06:46:12;95191.50;;;23.65;100.00
33454;BME280;39400;49.744;7.012;2023-09-18T06:48:38;95196.09;;;23.63;100.00
33454;BME280;39400;49.744;7.012;2023-09-18T06:51:03;95192.09;;;23.75;100.00
33454;BME280;39400;49.744;7.012;2023-09-18T06:53:28;95185.72;;;24.17;100.00
33454;BME280;39400;49.744;7.012;2023-09-18T06:55:54;95202.84;;;23.77;100.00
33454;BME280;39400;49.744;7.012;2023-09-18T06:58:19;95206.38;;;23.71;100.00
33454;BME280;39400;49.744;7.012;2023-09-18T07:00:44;95202.63;;;23.54;100.00
33454;BME280;39400;49.744;7.012;2023-09-18T07:03:10;95198.81;;;23.83;100.00
33454;BME280;39400;49.744;7.012;2023-09-18T07:05:35;95194.38;;;23.45;100.00
33454;BME280;39400;49.744;7.012;2023-09-18T07:08:00;95201.94;;;23.91;100.00
33454;BME280;39400;49.744;7.012;2023-09-18T07:10:25;95201.09;;;23.85;100.00
33454;BME280;39400;49.744;7.012;2023-09-18T07:12:50;95199.22;;;23.70;100.00
33454;BME280;39400;49.744;7.012;2023-09-18T07:15:17;95196.13;;;23.68;100.00
33454;BME280;39400;49.744;7.012;2023-09-18T07:17:42;95203.84;;;23.47;100.00
33454;BME280;39400;49.744;7.012;2023-09-18T07:20:07;95204.91;;;23.82;100.00
33454;BME280;39400;49.744;7.012;2023-09-18T07:22:33;95208.59;;;23.36;100.00
33454;BME280;39400;49.744;7.012;2023-09-18T07:24:58;95217.84;;;23.42;100.00
33454;BME280;39400;49.744;7.012;2023-09-18T07:27:23;95214.84;;;23.51;100.00
33454;BME280;39400;49.744;7.012;2023-09-18T07:29:48;95245.00;;;23.56;100.00
33454;BME280;39400;49.744;7.012;2023-09-18T07:32:13;95253.63;;;23.21;100.00
33454;BME280;39400;49.744;7.012;2023-09-18T07:34:39;95251.97;;;23.35;100.00
33454;BME280;39400;49.744;7.012;2023-09-18T07:37:04;95241.28;;;23.39;100.00
33454;BME280;39400;49.744;7.012;2023-09-18T07:39:29;95233.66;;;23.45;100.00
33454;BME280;39400;49.744;7.012;2023-09-18T07:41:54;95232.31;;;23.35;100.00
33454;BME280;39400;49.744;7.012;2023-09-18T07:44:20;95234.75;;;23.21;100.00
33454;BME280;39400;49.744;7.012;2023-09-18T07:46:45;95233.91;;;23.15;100.00
33454;BME280;39400;49.744;7.012;2023-09-18T07:49:11;95228.44;;;23.06;100.00
33454;BME280;39400;49.744;7.012;2023-09-18T07:51:36;95232.97;;;22.77;100.00
33454;BME280;39400;49.744;7.012;2023-09-18T07:54:01;95230.94;;;23.24;100.00
33454;BME280;39400;49.744;7.012;2023-09-18T07:56:26;95236.19;;;22.91;100.00
33454;BME280;39400;49.744;7.012;2023-09-18T07:58:51;95239.09;;;23.22;100.00
33454;BME280;39400;49.744;7.012;2023-09-18T08:01:17;95236.44;;;23.13;100.00
33454;BME280;39400;49.744;7.012;2023-09-18T08:03:42;95231.97;;;23.01;100.00
33454;BME280;39400;49.744;7.012;2023-09-18T08:06:07;95232.63;;;22.70;100.00
33454;BME280;39400;49.744;7.012;2023-09-18T08:08:32;95255.03;;;22.70;100.00
33454;BME280;39400;49.744;7.012;2023-09-18T08:10:58;95254.28;;;22.69;100.00
33454;BME280;39400;49.744;7.012;2023-09-18T08:13:23;95246.13;;;23.12;100.00
33454;BME280;39400;49.744;7.012;2023-09-18T08:15:48;95243.47;;;23.03;100.00
33454;BME280;39400;49.744;7.012;2023-09-18T08:18:13;95244.59;;;22.70;100.00
33454;BME280;39400;49.744;7.012;2023-09-18T08:20:42;95249.34;;;23.05;100.00
33454;BME280;39400;49.744;7.012;2023-09-18T08:23:07;95258.00;;;23.27;100.00
33454;BME280;39400;49.744;7.012;2023-09-18T08:25:33;95272.78;;;23.02;100.00
33454;BME280;39400;49.744;7.012;2023-09-18T08:27:58;95275.63;;;22.46;100.00
33454;BME280;39400;49.744;7.012;2023-09-18T08:30:23;95277.25;;;22.73;100.00
33454;BME280;39400;49.744;7.012;2023-09-18T08:32:48;95284.41;;;22.74;100.00
33454;BME280;39400;49.744;7.012;2023-09-18T08:35:13;95279.50;;;22.49;100.00
33454;BME280;39400;49.744;7.012;2023-09-18T08:37:42;95275.25;;;22.94;100.00
33454;BME280;39400;49.744;7.012;2023-09-18T08:40:09;95276.06;;;23.21;100.00
33454;BME280;39400;49.744;7.012;2023-09-18T08:42:35;95281.94;;;22.82;100.00
33454;BME280;39400;49.744;7.012;2023-09-18T08:45:01;95277.53;;;22.96;100.00
33454;BME280;39400;49.744;7.012;2023-09-18T08:47:26;95279.44;;;23.31;100.00
33454;BME280;39400;49.744;7.012;2023-09-18T08:49:52;95288.16;;;22.92;100.00
33454;BME280;39400;49.744;7.012;2023-09-18T08:52:19;95281.72;;;22.86;100.00
33454;BME280;39400;49.744;7.012;2023-09-18T08:54:45;95279.22;;;23.08;100.00
33454;BME280;39400;49.744;7.012;2023-09-18T08:57:10;95290.91;;;23.53;100.00
33454;BME280;39400;49.744;7.012;2023-09-18T08:59:36;95271.88;;;23.37;100.00
33454;BME280;39400;49.744;7.012;2023-09-18T09:02:02;95275.84;;;23.24;100.00
33454;BME280;39400;49.744;7.012;2023-09-18T09:04:27;95280.66;;;23.24;100.00
33454;BME280;39400;49.744;7.012;2023-09-18T09:06:52;95271.47;;;23.23;100.00
33454;BME280;39400;49.744;7.012;2023-09-18T09:09:17;95277.03;;;23.44;100.00
33454;BME280;39400;49.744;7.012;2023-09-18T09:11:48;95287.09;;;23.04;100.00
33454;BME280;39400;49.744;7.012;2023-09-18T09:14:13;95266.84;;;23.20;100.00
33454;BME280;39400;49.744;7.012;2023-09-18T09:16:39;95292.88;;;23.47;100.00
33454;BME280;39400;49.744;7.012;2023-09-18T09:19:04;95292.88;;;23.47;100.00
33454;BME280;39400;49.744;7.012;2023-09-18T09:21:42;95292.41;;;23.02;100.00
33454;BME280;39400;49.744;7.012;2023-09-18T09:24:07;95291.41;;;22.85;100.00
33454;BME280;39400;49.744;7.012;2023-09-18T09:26:32;95295.84;;;23.12;100.00
33454;BME280;39400;49.744;7.012;2023-09-18T09:28:59;95296.28;;;23.31;100.00
33454;BME280;39400;49.744;7.012;2023-09-18T09:31:38;95289.88;;;23.04;100.00
33454;BME280;39400;49.744;7.012;2023-09-18T09:34:04;95295.41;;;23.19;100.00
33454;BME280;39400;49.744;7.012;2023-09-18T09:36:29;95295.78;;;23.58;100.00
33454;BME280;39400;49.744;7.012;2023-09-18T09:38:58;95298.94;;;23.40;100.00
33454;BME280;39400;49.744;7.012;2023-09-18T09:41:23;95308.63;;;23.39;100.00
33454;BME280;39400;49.744;7.012;2023-09-18T09:43:48;95319.69;;;23.01;100.00
33454;BME280;39400;49.744;7.012;2023-09-18T09:46:15;95315.78;;;23.40;100.00
33454;BME280;39400;49.744;7.012;2023-09-18T09:48:40;95311.81;;;23.52;100.00
33454;BME280;39400;49.744;7.012;2023-09-18T09:51:05;95314.97;;;23.13;100.00
33454;BME280;39400;49.744;7.012;2023-09-18T09:56:08;95330.63;;;23.46;100.00
33454;BME280;39400;49.744;7.012;2023-09-18T09:58:33;95326.91;;;23.81;100.00
33454;BME280;39400;49.744;7.012;2023-09-18T10:00:59;95339.75;;;23.41;100.00
33454;BME280;39400;49.744;7.012;2023-09-18T10:03:27;95333.78;;;23.07;100.00
33454;BME280;39400;49.744;7.012;2023-09-18T10:05:52;95332.22;;;23.06;100.00
33454;BME280;39400;49.744;7.012;2023-09-18T10:08:25;95323.09;;;23.58;100.00
33454;BME280;39400;49.744;7.012;2023-09-18T10:10:52;95328.28;;;23.18;100.00
33454;BME280;39400;49.744;7.012;2023-09-18T10:13:21;95325.19;;;23.16;100.00
33454;BME280;39400;49.744;7.012;2023-09-18T10:15:48;95317.72;;;23.34;100.00
33454;BME280;39400;49.744;7.012;2023-09-18T10:18:28;95328.38;;;23.50;100.00
33454;BME280;39400;49.744;7.012;2023-09-18T10:21:00;95332.09;;;23.41;100.00
33454;BME280;39400;49.744;7.012;2023-09-18T10:23:32;95322.91;;;23.41;100.00
33454;BME280;39400;49.744;7.012;2023-09-18T10:25:59;95324.03;;;23.49;100.00
33454;BME280;39400;49.744;7.012;2023-09-18T10:28:24;95317.22;;;23.56;100.00
33454;BME280;39400;49.744;7.012;2023-09-18T10:30:50;95315.19;;;23.56;100.00
33454;BME280;39400;49.744;7.012;2023-09-18T10:33:16;95323.34;;;23.34;100.00
33454;BME280;39400;49.744;7.012;2023-09-18T10:35:41;95326.78;;;23.43;100.00
33454;BME280;39400;49.744;7.012;2023-09-18T10:38:07;95309.28;;;23.54;100.00
33454;BME280;39400;49.744;7.012;2023-09-18T10:40:34;95310.41;;;23.62;100.00
33454;BME280;39400;49.744;7.012;2023-09-18T10:42:59;95304.00;;;24.19;100.00
33454;BME280;39400;49.744;7.012;2023-09-18T10:45:27;95297.91;;;24.27;100.00
33454;BME280;39400;49.744;7.012;2023-09-18T10:47:52;95310.59;;;24.48;100.00
33454;BME280;39400;49.744;7.012;2023-09-18T10:50:25;95303.00;;;24.23;100.00
33454;BME280;39400;49.744;7.012;2023-09-18T10:52:50;95288.16;;;23.85;100.00
33454;BME280;39400;49.744;7.012;2023-09-18T10:55:16;95290.44;;;24.55;100.00
33454;BME280;39400;49.744;7.012;2023-09-18T10:57:54;95283.44;;;24.82;100.00
33454;BME280;39400;49.744;7.012;2023-09-18T11:00:21;95290.41;;;24.98;100.00
33454;BME280;39400;49.744;7.012;2023-09-18T11:02:46;95289.00;;;25.31;100.00
33454;BME280;39400;49.744;7.012;2023-09-18T11:05:11;95297.69;;;25.27;100.00
33454;BME280;39400;49.744;7.012;2023-09-18T11:07:36;95294.25;;;25.06;100.00
33454;BME280;39400;49.744;7.012;2023-09-18T11:10:24;95286.28;;;24.88;100.00
33454;BME280;39400;49.744;7.012;2023-09-18T11:12:48;95288.75;;;25.34;99.39
33454;BME280;39400;49.744;7.012;2023-09-18T11:15:26;95290.28;;;25.30;100.00
33454;BME280;39400;49.744;7.012;2023-09-18T11:17:58;95291.09;;;25.47;96.71
33454;BME280;39400;49.744;7.012;2023-09-18T11:20:24;95297.22;;;25.46;97.99
33454;BME280;39400;49.744;7.012;2023-09-18T11:22:55;95298.34;;;25.05;100.00
33454;BME280;39400;49.744;7.012;2023-09-18T11:27:55;95297.69;;;25.22;99.79
33454;BME280;39400;49.744;7.012;2023-09-18T11:30:20;95299.69;;;25.16;98.56
33454;BME280;39400;49.744;7.012;2023-09-18T11:32:45;95291.81;;;24.71;100.00
33454;BME280;39400;49.744;7.012;2023-09-18T11:35:11;95282.31;;;25.11;100.00
33454;BME280;39400;49.744;7.012;2023-09-18T11:37:36;95287.53;;;25.75;98.13
33454;BME280;39400;49.744;7.012;2023-09-18T11:40:01;95271.16;;;26.07;96.57
33454;BME280;39400;49.744;7.012;2023-09-18T11:42:26;95270.63;;;26.37;91.14
33454;BME280;39400;49.744;7.012;2023-09-18T11:44:52;95267.56;;;26.18;92.52
33454;BME280;39400;49.744;7.012;2023-09-18T11:47:18;95274.50;;;26.05;91.06
33454;BME280;39400;49.744;7.012;2023-09-18T11:49:47;95281.69;;;25.90;90.27
33454;BME280;39400;49.744;7.012;2023-09-18T11:52:13;95279.84;;;25.70;91.22
33454;BME280;39400;49.744;7.012;2023-09-18T11:54:39;95278.88;;;25.84;90.78
33454;BME280;39400;49.744;7.012;2023-09-18T11:57:05;95289.88;;;25.99;92.71
33454;BME280;39400;49.744;7.012;2023-09-18T11:59:48;95283.44;;;26.32;88.91
33454;BME280;39400;49.744;7.012;2023-09-18T12:02:28;95278.59;;;26.32;88.15
33454;BME280;39400;49.744;7.012;2023-09-18T12:04:54;95272.16;;;26.32;87.98
33454;BME280;39400;49.744;7.012;2023-09-18T12:07:19;95276.81;;;26.01;86.67
33454;BME280;39400;49.744;7.012;2023-09-18T12:09:45;95269.09;;;25.62;87.70
33454;BME280;39400;49.744;7.012;2023-09-18T12:12:10;95266.06;;;25.83;85.98
33454;BME280;39400;49.744;7.012;2023-09-18T12:14:35;95271.19;;;26.13;85.85
33454;BME280;39400;49.744;7.012;2023-09-18T12:17:01;95271.13;;;26.58;84.94
33454;BME280;39400;49.744;7.012;2023-09-18T12:19:27;95271.88;;;26.58;83.04
33454;BME280;39400;49.744;7.012;2023-09-18T12:21:52;95274.91;;;27.35;82.57
33454;BME280;39400;49.744;7.012;2023-09-18T12:24:20;95273.75;;;27.61;79.88
33454;BME280;39400;49.744;7.012;2023-09-18T12:26:46;95278.00;;;27.37;80.08
33454;BME280;39400;49.744;7.012;2023-09-18T12:29:12;95281.72;;;27.57;80.70
33454;BME280;39400;49.744;7.012;2023-09-18T12:31:37;95268.16;;;27.49;79.02
33454;BME280;39400;49.744;7.012;2023-09-18T12:34:02;95275.63;;;27.47;80.09
33454;BME280;39400;49.744;7.012;2023-09-18T12:36:27;95284.94;;;26.67;76.90
33454;BME280;39400;49.744;7.012;2023-09-18T12:38:56;95278.25;;;26.70;81.35
33454;BME280;39400;49.744;7.012;2023-09-18T12:41:23;95277.28;;;26.50;80.90
33454;BME280;39400;49.744;7.012;2023-09-18T12:43:49;95278.25;;;26.81;81.85
33454;BME280;39400;49.744;7.012;2023-09-18T12:46:15;95276.69;;;26.80;80.17
33454;BME280;39400;49.744;7.012;2023-09-18T12:48:40;95276.75;;;26.58;83.74
33454;BME280;39400;49.744;7.012;2023-09-18T12:51:05;95262.84;;;26.82;82.61
33454;BME280;39400;49.744;7.012;2023-09-18T12:53:31;95273.91;;;26.63;81.16
33454;BME280;39400;49.744;7.012;2023-09-18T12:56:09;95277.47;;;26.75;81.29
33454;BME280;39400;49.744;7.012;2023-09-18T12:58:34;95270.78;;;26.84;83.87